Time;durP1;ratioP1;P1;durP2;ratioP2;P2;SDS_P1;SDS_P2;PMS_P1;PMS_P2;Temp;Humidity;BMP_temperature;BMP_pressure;BME280_temperature;BME280_humidity;BME280_pressure;Samples;Min_cycle;Max_cycle;Signal;HPM_P1;HPM_P2
2022/11/30 02:38:51;;;;;;;70.65;42.90;;;;;;;4.48;91.98;101569.22;5073431;28;20043;-78
2022/11/30 06:09:14;;;;;;;78.35;47.00;;;;;;;4.36;90.34;101690.22;5037044;28;20637;-78
2022/11/30 06:11:41;;;;;;;77.57;45.38;;;;;;;4.36;90.97;101689.34;5012515;28;20045;-79
2022/11/30 06:14:09;;;;;;;74.80;45.33;;;;;;;4.35;90.32;101691.09;5024079;28;20060;-78
2022/11/30 06:16:38;;;;;;;69.20;45.00;;;;;;;4.38;90.70;101692.81;5015153;28;20106;-78
2022/11/30 06:19:11;;;;;;;73.63;44.78;;;;;;;4.37;89.92;101691.97;5035140;28;20053;-78
2022/11/30 06:21:39;;;;;;;80.72;45.88;;;;;;;4.37;90.45;101691.97;5047041;28;20049;-79
2022/11/30 06:24:07;;;;;;;70.18;43.35;;;;;;;4.37;90.73;101697.19;5061163;28;20072;-79
2022/11/30 06:26:34;;;;;;;72.95;44.58;;;;;;;4.39;89.82;101699.75;5033210;28;20159;-79
2022/11/30 06:29:02;;;;;;;72.78;45.00;;;;;;;4.40;90.56;101699.72;5064574;28;20072;-79
2022/11/30 06:48:21;;;;;;;80.20;48.70;;;;;;;4.36;89.98;101708.47;5055282;28;20576;-79
2022/11/30 07:17:03;;;;;;;70.07;43.00;;;;;;;4.35;90.38;101734.56;5054507;28;20052;-79
2022/11/30 07:19:33;;;;;;;74.75;47.55;;;;;;;4.34;90.28;101735.47;5037509;28;20113;-79
2022/11/30 07:22:00;;;;;;;79.72;48.35;;;;;;;4.30;90.25;101737.25;5042382;28;20109;-80
2022/11/30 07:33:07;;;;;;;77.97;43.30;;;;;;;4.40;90.80;101745.78;5055693;28;20040;-78
2022/11/30 07:35:34;;;;;;;77.07;45.08;;;;;;;4.37;90.97;101745.81;5038866;28;20105;-79
2022/11/30 07:38:02;;;;;;;69.45;43.17;;;;;;;4.36;91.10;101749.31;5053147;28;20128;-79
2022/11/30 07:50:10;;;;;;;70.85;42.30;;;;;;;4.51;89.45;101757.78;4997259;28;20053;-78
2022/11/30 07:52:37;;;;;;;69.95;43.17;;;;;;;4.52;89.13;101764.72;4998772;28;20057;-78
2022/11/30 07:55:05;;;;;;;73.07;43.30;;;;;;;4.50;88.93;101763.88;4998379;28;20073;-79
2022/11/30 07:57:41;;;;;;;67.68;40.17;;;;;;;4.49;88.99;101763.88;4995613;28;20077;-79
2022/11/30 08:00:09;;;;;;;73.78;48.33;;;;;;;4.52;88.63;101758.63;5076446;28;20068;-78
2022/11/30 08:02:36;;;;;;;75.97;47.63;;;;;;;4.42;88.80;101759.69;5056423;28;20083;-78
2022/11/30 08:05:04;;;;;;;69.07;41.50;;;;;;;4.44;89.38;101756.13;5061849;28;20060;-78
2022/11/30 08:07:31;;;;;;;69.65;41.80;;;;;;;4.46;89.27;101762.22;5069366;28;20068;-78
2022/11/30 08:09:59;;;;;;;70.10;41.85;;;;;;;4.47;89.28;101763.94;5062752;28;20088;-80
2022/11/30 08:12:26;;;;;;;67.93;41.28;;;;;;;4.50;89.23;101763.00;5056471;28;20108;-80
2022/11/30 08:14:54;;;;;;;68.88;42.13;;;;;;;4.54;88.97;101760.31;5061413;28;20104;-81
2022/11/30 08:17:41;;;;;;;68.05;41.67;;;;;;;4.53;88.82;101766.44;5062440;28;20080;-81
2022/11/30 08:20:10;;;;;;;70.25;43.25;;;;;;;4.53;88.90;101760.34;5052852;28;20108;-79
2022/11/30 08:22:39;;;;;;;72.60;43.25;;;;;;;4.53;88.67;101768.19;5059152;28;20057;-79
2022/11/30 08:25:07;;;;;;;66.60;40.80;;;;;;;4.56;88.41;101773.34;5072846;28;20075;-79
2022/11/30 08:27:35;;;;;;;71.38;42.13;;;;;;;4.55;87.95;101777.72;5062164;28;20124;-80
2022/11/30 08:30:03;;;;;;;69.60;43.42;;;;;;;4.56;88.60;101771.59;5042292;28;20128;-79
2022/11/30 08:32:31;;;;;;;71.68;43.90;;;;;;;4.54;88.76;101767.28;5041769;28;20136;-80
2022/11/30 08:34:59;;;;;;;70.30;42.47;;;;;;;4.51;88.68;101775.19;5022595;28;20045;-79
2022/11/30 08:37:26;;;;;;;70.65;42.25;;;;;;;4.54;89.21;101780.31;5056104;28;20140;-79
2022/11/30 08:39:54;;;;;;;70.88;45.22;;;;;;;4.57;88.76;101777.69;5034963;28;20045;-80
2022/11/30 08:42:21;;;;;;;72.93;42.90;;;;;;;4.61;88.33;101788.94;5063248;28;20122;-79
2022/11/30 08:44:49;;;;;;;69.03;41.38;;;;;;;4.60;88.14;101790.69;5035810;28;20045;-79
2022/11/30 08:47:16;;;;;;;76.22;43.38;;;;;;;4.62;87.67;101791.50;5023248;28;20045;-79
2022/11/30 08:49:44;;;;;;;68.53;40.67;;;;;;;4.62;88.45;101785.44;5053722;28;20160;-79
2022/11/30 08:52:11;;;;;;;69.20;41.45;;;;;;;4.66;87.66;101792.31;5056861;28;20268;-80
2022/11/30 08:54:45;;;;;;;67.50;43.97;;;;;;;4.66;87.34;101793.19;5053888;28;20053;-80
2022/11/30 08:57:16;;;;;;;73.22;46.67;;;;;;;4.61;88.14;101794.16;5043145;28;20144;-80
2022/11/30 08:59:44;;;;;;;78.55;47.70;;;;;;;4.65;87.56;101798.44;5025117;28;20151;-79
2022/11/30 09:02:15;;;;;;;67.82;41.10;;;;;;;4.66;87.47;101794.94;5057306;28;20124;-80
2022/11/30 09:04:43;;;;;;;72.78;46.05;;;;;;;4.69;87.52;101797.50;5045368;28;20163;-80
2022/11/30 09:07:10;;;;;;;74.55;41.50;;;;;;;4.61;87.64;101801.97;5038555;28;20109;-79
2022/11/30 09:09:38;;;;;;;66.80;43.20;;;;;;;4.63;88.63;101798.44;5055479;28;20124;-79
2022/11/30 09:12:06;;;;;;;67.75;40.10;;;;;;;4.66;88.76;101794.94;5045785;28;20120;-79
2022/11/30 09:14:34;;;;;;;73.60;44.20;;;;;;;4.68;88.03;101795.75;5040271;28;20469;-80
2022/11/30 09:17:02;;;;;;;70.97;42.15;;;;;;;4.68;88.16;101806.19;5042778;28;20495;-80
2022/11/30 09:19:29;;;;;;;76.93;48.15;;;;;;;4.69;88.02;101798.34;5066007;28;20060;-79
2022/11/30 09:21:57;;;;;;;66.65;41.13;;;;;;;4.72;88.36;101798.28;5079277;28;20064;-78
2022/11/30 09:24:24;;;;;;;75.85;43.20;;;;;;;4.75;87.90;101800.84;5056041;28;20064;-79
2022/11/30 09:26:54;;;;;;;74.55;43.33;;;;;;;4.79;88.32;101801.69;5051692;28;20068;-80
2022/11/30 09:29:24;;;;;;;70.10;44.35;;;;;;;4.79;88.63;101801.69;5074643;28;20092;-79
2022/11/30 09:31:51;;;;;;;66.57;41.53;;;;;;;4.78;88.06;101798.22;5067777;28;20064;-80
2022/11/30 09:34:19;;;;;;;70.55;41.55;;;;;;;4.85;88.05;101809.38;5036542;28;20049;-79
2022/11/30 09:36:46;;;;;;;77.43;47.88;;;;;;;4.85;87.98;101804.19;5057396;28;20097;-79
2022/11/30 09:39:14;;;;;;;73.15;43.95;;;;;;;4.87;87.64;101799.81;5042279;28;20129;-79
2022/11/30 09:42:03;;;;;;;68.15;41.95;;;;;;;4.89;87.86;101805.84;5058041;28;20129;-80
2022/11/30 09:45:06;;;;;;;75.93;47.95;;;;;;;4.94;88.16;101804.03;5055173;28;20119;-80
2022/11/30 09:47:52;;;;;;;71.60;42.53;;;;;;;4.94;87.68;101803.16;5046220;28;20604;-80
2022/11/30 09:50:21;;;;;;;76.38;50.20;;;;;;;4.90;87.99;101798.88;5058199;28;20132;-80
2022/11/30 09:52:54;;;;;;;72.78;43.42;;;;;;;4.95;87.90;101808.34;5063391;28;20084;-78
2022/11/30 09:55:29;;;;;;;64.32;40.40;;;;;;;4.99;88.00;101798.72;5046169;28;20133;-78
2022/11/30 09:58:01;;;;;;;70.70;43.13;;;;;;;4.95;88.08;101800.53;5076168;28;20073;-79
2022/11/30 10:04:20;;;;;;;73.82;48.53;;;;;;;4.91;87.14;101790.16;5058595;28;20746;-80
2022/11/30 10:07:26;;;;;;;72.72;46.63;;;;;;;4.91;87.74;101790.16;5047594;28;20144;-80
2022/11/30 10:10:19;;;;;;;78.18;47.95;;;;;;;4.89;87.21;101794.56;5048910;28;20124;-80
2022/11/30 10:13:22;;;;;;;69.22;42.05;;;;;;;4.89;87.96;101794.56;5061874;28;20128;-80
2022/11/30 10:16:29;;;;;;;69.55;42.72;;;;;;;5.00;87.60;101795.25;5056444;28;20100;-79
2022/11/30 10:23:34;;;;;;;64.22;40.03;;;;;;;5.11;87.31;101798.53;5054659;28;20055;-79
2022/11/30 10:26:14;;;;;;;61.55;38.75;;;;;;;5.14;86.64;101797.63;5058100;28;20109;-79
2022/11/30 10:28:52;;;;;;;68.68;41.65;;;;;;;5.18;86.90;101797.53;5029308;28;20113;-80
2022/11/30 10:31:27;;;;;;;69.85;41.75;;;;;;;5.26;87.04;101800.84;5044586;28;20144;-78
2022/11/30 10:33:58;;;;;;;66.07;41.08;;;;;;;5.28;86.86;101801.69;5043762;28;20096;-79
2022/11/30 10:36:32;;;;;;;68.63;43.08;;;;;;;5.29;86.90;101794.72;5026768;28;20124;-78
2022/11/30 10:39:02;;;;;;;67.05;45.72;;;;;;;5.33;87.24;101799.00;5046734;28;20052;-78
2022/11/30 10:41:34;;;;;;;65.78;39.92;;;;;;;5.42;87.03;101798.84;5052895;28;20065;-78
2022/11/30 10:44:05;;;;;;;74.65;46.58;;;;;;;5.49;86.05;101796.94;5040971;28;20077;-78
2022/11/30 10:46:36;;;;;;;70.80;40.88;;;;;;;5.50;86.23;101794.34;5072861;28;20080;-78
2022/11/30 10:49:06;;;;;;;64.35;40.30;;;;;;;5.53;86.35;101788.16;5054060;28;20136;-78
2022/11/30 10:51:45;;;;;;;73.22;45.80;;;;;;;5.56;86.36;101786.38;5067925;28;20164;-80
2022/11/30 10:54:18;;;;;;;74.25;47.58;;;;;;;5.64;85.47;101793.19;5012444;28;20124;-80
2022/11/30 10:56:46;;;;;;;65.43;41.28;;;;;;;5.63;85.43;101789.72;5023807;28;20112;-79
2022/11/30 10:59:30;;;;;;;62.38;40.42;;;;;;;5.66;85.44;101794.88;5050369;28;20136;-80
2022/11/30 11:01:57;;;;;;;62.17;39.78;;;;;;;5.69;85.11;101797.44;5047396;28;20143;-79
2022/11/30 11:08:50;;;;;;;67.90;44.72;;;;;;;5.71;84.49;101789.56;5058794;28;20044;-81
2022/11/30 11:11:44;;;;;;;71.20;45.03;;;;;;;5.72;83.88;101788.66;5044088;28;20144;-80
2022/11/30 11:14:18;;;;;;;67.88;43.65;;;;;;;5.74;84.27;101797.34;5013898;28;20136;-82
2022/11/30 11:16:52;;;;;;;75.13;46.42;;;;;;;5.77;83.26;101789.44;5045574;28;20135;-80
2022/11/30 11:19:26;;;;;;;66.22;44.42;;;;;;;5.78;84.13;101799.88;5060175;28;20125;-80
2022/11/30 11:21:53;;;;;;;71.18;47.08;;;;;;;5.79;83.87;101803.34;5043881;28;20131;-81
2022/11/30 11:24:25;;;;;;;68.43;44.08;;;;;;;5.74;82.59;101802.56;5060673;28;20131;-79
2022/11/30 11:26:54;;;;;;;64.72;41.13;;;;;;;5.70;82.90;101806.13;5043080;28;20151;-78
2022/11/30 11:29:30;;;;;;;69.88;44.75;;;;;;;5.77;83.88;101806.00;5041839;28;20089;-80
2022/11/30 11:32:19;;;;;;;63.42;39.35;;;;;;;5.84;84.01;101804.94;5044167;28;20129;-79
2022/11/30 11:34:47;;;;;;;63.80;39.08;;;;;;;5.90;84.06;101804.00;5063093;28;20435;-77
2022/11/30 11:37:29;;;;;;;74.88;46.10;;;;;;;6.00;84.58;101802.94;5033795;28;20128;-78
2022/11/30 11:40:23;;;;;;;64.80;43.17;;;;;;;6.01;83.14;101791.56;5047703;28;20137;-79
2022/11/30 11:42:53;;;;;;;74.68;47.80;;;;;;;5.94;82.98;101805.66;5047268;28;20113;-78
2022/11/30 11:45:22;;;;;;;66.03;45.45;;;;;;;5.89;83.02;101802.25;5031277;28;20140;-79
2022/11/30 11:48:29;;;;;;;64.85;41.30;;;;;;;5.89;83.32;101809.22;5046691;28;20108;-79
2022/11/30 11:51:09;;;;;;;74.63;48.35;;;;;;;5.86;83.00;101814.53;5001044;28;20072;-80
2022/11/30 11:53:54;;;;;;;70.90;47.10;;;;;;;5.85;83.51;101818.88;5037384;28;20063;-78
2022/11/30 11:56:31;;;;;;;71.63;45.38;;;;;;;5.92;83.52;101815.28;5044912;28;20061;-80
2022/11/30 11:59:49;;;;;;;72.53;48.53;;;;;;;5.98;83.32;101814.28;5058832;28;20056;-79
2022/11/30 12:02:22;;;;;;;72.63;47.45;;;;;;;6.03;82.74;101813.34;4978510;28;20106;-79
2022/11/30 12:05:18;;;;;;;70.07;45.05;;;;;;;6.05;82.84;101814.16;4959829;28;20049;-80
2022/11/30 12:07:58;;;;;;;62.77;39.90;;;;;;;6.11;83.00;101818.38;5037628;28;20580;-80
2022/11/30 12:10:33;;;;;;;65.75;41.72;;;;;;;6.12;82.98;101814.00;5053910;28;20555;-79
2022/11/30 12:13:21;;;;;;;71.13;46.67;;;;;;;6.02;82.18;101814.19;5060843;28;20354;-80
2022/11/30 12:16:09;;;;;;;76.70;49.45;;;;;;;5.98;82.44;101816.91;5041980;28;21481;-78
2022/11/30 12:18:43;;;;;;;69.82;42.67;;;;;;;5.92;82.47;101817.06;5056603;28;20109;-79
2022/11/30 12:21:20;;;;;;;70.28;44.28;;;;;;;5.96;83.20;101818.72;5054586;28;20132;-80
2022/11/30 12:24:03;;;;;;;78.40;49.53;;;;;;;6.02;83.49;101814.19;5021318;28;20116;-79
2022/11/30 12:26:43;;;;;;;76.13;49.13;;;;;;;6.01;82.84;101809.00;5031124;28;20144;-79
2022/11/30 12:29:30;;;;;;;70.78;46.50;;;;;;;5.95;83.67;101815.25;5025882;28;20043;-79
2022/11/30 12:32:19;;;;;;;72.63;44.30;;;;;;;5.86;82.53;101815.41;5048674;28;20115;-79
2022/11/30 12:34:59;;;;;;;72.40;46.35;;;;;;;5.87;83.89;101824.94;5048656;28;20078;-78
2022/11/30 12:37:44;;;;;;;81.15;51.17;;;;;;;5.85;83.87;101816.25;5031095;28;20797;-80
2022/11/30 12:40:52;;;;;;;80.95;46.92;;;;;;;5.86;82.14;101820.63;5030977;28;20112;-79
2022/11/30 12:43:38;;;;;;;83.22;53.15;;;;;;;5.95;83.76;101817.84;5041477;28;20068;-79
2022/11/30 12:46:28;;;;;;;76.90;47.78;;;;;;;5.91;84.24;101818.78;5067607;28;20072;-79
2022/11/30 12:49:38;;;;;;;71.70;45.78;;;;;;;5.87;83.88;101819.72;5043246;28;20075;-78
2022/11/30 12:52:18;;;;;;;89.97;55.17;;;;;;;5.92;83.88;101823.13;5049354;28;20071;-78
2022/11/30 12:55:10;;;;;;;87.35;55.47;;;;;;;5.95;83.51;101825.69;5062006;28;20080;-78
2022/11/30 12:57:50;;;;;;;88.40;56.50;;;;;;;5.84;83.39;101832.84;5045752;28;20073;-78
2022/11/30 13:00:20;;;;;;;86.75;55.58;;;;;;;5.87;84.35;101824.09;5009924;28;20052;-79
2022/11/30 13:03:09;;;;;;;81.30;50.13;;;;;;;5.87;83.60;101819.72;5049760;28;20059;-80
2022/11/30 13:05:43;;;;;;;78.03;48.22;;;;;;;5.76;83.57;101825.19;5041396;28;20044;-79
2022/11/30 13:08:25;;;;;;;87.40;51.20;;;;;;;5.73;83.65;101830.44;5033682;28;20055;-79
2022/11/30 13:10:59;;;;;;;91.45;57.03;;;;;;;5.83;84.45;101828.50;5032691;28;20043;-79
2022/11/30 13:13:32;;;;;;;74.53;46.55;;;;;;;5.88;84.25;101828.41;5040365;28;20092;-78
2022/11/30 13:16:03;;;;;;;80.28;46.78;;;;;;;5.93;83.87;101832.69;5037708;28;20140;-79
2022/11/30 13:18:33;;;;;;;84.70;52.63;;;;;;;5.90;83.25;101832.75;5031718;28;20063;-79
2022/11/30 13:21:06;;;;;;;74.95;45.20;;;;;;;5.88;83.54;101831.03;5045204;28;20071;-78
2022/11/30 13:23:41;;;;;;;81.10;52.28;;;;;;;5.98;81.81;101832.59;5050819;28;20139;-79
2022/11/30 13:26:33;;;;;;;75.80;46.72;;;;;;;6.02;81.57;101840.34;5034337;28;20045;-79
2022/11/30 13:29:22;;;;;;;89.47;51.67;;;;;;;6.02;81.27;101842.09;5030333;28;20049;-78
2022/11/30 13:32:04;;;;;;;71.80;45.75;;;;;;;6.01;80.35;101849.09;5046388;28;20109;-79
2022/11/30 13:34:32;;;;;;;75.47;46.63;;;;;;;5.91;80.16;101842.28;5032395;28;20049;-79
2022/11/30 13:37:20;;;;;;;80.07;45.08;;;;;;;5.74;79.84;101847.00;5052173;28;20297;-80
2022/11/30 13:39:55;;;;;;;86.03;52.70;;;;;;;5.69;81.49;101848.84;5052230;28;20068;-79
2022/11/30 13:42:35;;;;;;;78.85;50.63;;;;;;;5.68;82.10;101855.81;5017297;28;20109;-80
2022/11/30 13:45:12;;;;;;;88.70;54.17;;;;;;;5.50;82.13;101851.78;5033625;28;20132;-80
2022/11/30 13:47:44;;;;;;;89.75;53.70;;;;;;;5.55;82.20;101854.31;5045222;28;20104;-79
2022/11/30 13:50:24;;;;;;;82.40;50.80;;;;;;;5.37;80.09;101854.66;5044870;28;20051;-80
2022/11/30 13:53:17;;;;;;;95.35;56.80;;;;;;;5.26;81.79;101852.22;5033230;28;20132;-79
2022/11/30 13:55:47;;;;;;;89.55;52.35;;;;;;;5.28;81.59;101855.66;5047698;28;20521;-80
2022/11/30 13:58:16;;;;;;;100.40;57.83;;;;;;;5.12;81.96;101851.59;5049417;28;20132;-79
2022/11/30 14:00:45;;;;;;;88.05;50.53;;;;;;;5.15;81.67;101856.75;5031547;28;20197;-80
2022/11/30 14:03:19;;;;;;;94.45;58.00;;;;;;;5.19;81.41;101853.22;5046358;28;20045;-79
2022/11/30 14:05:57;;;;;;;89.55;51.05;;;;;;;5.02;81.42;101862.19;5026910;28;20067;-79
2022/11/30 14:08:32;;;;;;;88.80;50.92;;;;;;;4.97;81.59;101865.75;5032592;28;20056;-80
2022/11/30 14:11:19;;;;;;;92.80;53.90;;;;;;;4.94;81.75;101865.78;5029694;28;20041;-79
2022/11/30 14:13:47;;;;;;;96.25;55.65;;;;;;;4.78;82.21;101859.97;5049557;28;20204;-79
2022/11/30 14:16:26;;;;;;;89.60;51.15;;;;;;;4.75;81.72;101857.38;5018218;28;20053;-80
2022/11/30 14:18:55;;;;;;;93.78;52.53;;;;;;;4.73;82.89;101856.56;5032666;28;20029;-78
2022/11/30 14:21:30;;;;;;;95.05;53.22;;;;;;;4.72;83.29;101854.81;5043080;28;20051;-79
2022/11/30 14:24:03;;;;;;;103.97;60.67;;;;;;;4.55;83.05;101855.09;5047156;28;20045;-80
2022/11/30 14:26:39;;;;;;;92.18;51.05;;;;;;;4.52;83.03;101866.41;5029487;28;20037;-78
2022/11/30 14:29:15;;;;;;;103.40;54.50;;;;;;;4.52;83.15;101866.41;5033511;28;20128;-77
2022/11/30 14:32:07;;;;;;;102.68;54.50;;;;;;;4.49;83.21;101871.66;5025814;28;20031;-80
2022/11/30 14:34:37;;;;;;;111.85;61.05;;;;;;;4.48;83.60;101877.75;5044539;28;20109;-79
2022/11/30 14:37:15;;;;;;;97.07;53.13;;;;;;;4.41;83.89;101876.09;5016581;28;20132;-79
2022/11/30 14:39:45;;;;;;;97.72;53.90;;;;;;;4.32;83.41;101882.34;5039052;28;20108;-77
2022/11/30 16:35:29;;;;;;;98.22;44.97;;;;;;;2.87;88.26;101933.19;5045210;28;20048;-77
2022/11/30 16:37:56;;;;;;;;;;;;;;;2.83;88.73;101928.88;5006836;28;20067;-77
2022/11/30 16:40:23;;;;;;;99.85;45.95;;;;;;;2.81;88.64;101933.22;5022450;28;19972;-78
2022/11/30 16:42:51;;;;;;;105.05;52.20;;;;;;;2.81;88.38;101941.03;5033403;28;20061;-79
2022/11/30 16:45:21;;;;;;;101.18;45.95;;;;;;;2.81;89.02;101941.03;5019819;28;20053;-78
2022/11/30 16:47:51;;;;;;;93.45;45.45;;;;;;;2.86;88.21;101941.84;5042980;28;20040;-78
2022/11/30 16:50:19;;;;;;;94.05;44.30;;;;;;;2.90;88.38;101943.56;5008377;28;20052;-78
2022/11/30 16:52:46;;;;;;;110.40;51.60;;;;;;;2.95;87.07;101947.00;5051370;28;20128;-78
2022/11/30 16:55:20;;;;;;;99.13;45.90;;;;;;;2.97;87.64;101945.28;5041266;28;20132;-77
2022/11/30 16:57:49;;;;;;;99.10;44.92;;;;;;;2.79;88.00;101953.16;5046039;28;20175;-79
2022/11/30 17:00:17;;;;;;;92.75;44.40;;;;;;;2.84;88.88;101953.13;5044097;28;20662;-77
2022/11/30 17:03:10;;;;;;;104.93;45.75;;;;;;;2.87;89.06;101958.31;5021702;28;20053;-77
2022/11/30 17:05:37;;;;;;;102.22;47.15;;;;;;;2.86;88.37;101946.19;5024407;28;20049;-78
2022/11/30 17:08:05;;;;;;;103.15;47.38;;;;;;;2.89;88.13;101951.41;5024725;28;20056;-77
2022/11/30 17:10:32;;;;;;;98.32;45.80;;;;;;;2.77;88.83;101955.78;5021006;28;20033;-79
2022/11/30 17:13:00;;;;;;;109.20;48.10;;;;;;;2.64;89.51;101955.84;5051259;28;20041;-77
2022/11/30 17:15:27;;;;;;;103.38;47.85;;;;;;;2.56;89.35;101957.63;5042886;28;20422;-78
2022/11/30 17:17:58;;;;;;;102.72;48.28;;;;;;;2.56;89.89;101955.00;5044062;28;20056;-79
2022/11/30 17:20:27;;;;;;;99.97;46.17;;;;;;;2.60;90.31;101956.72;5038893;28;20323;-79
2022/11/30 17:22:56;;;;;;;105.20;45.38;;;;;;;2.66;89.78;101960.19;5052657;28;20131;-78
2022/11/30 17:25:23;;;;;;;97.18;45.92;;;;;;;2.72;89.39;101960.13;5035728;28;20203;-78
2022/11/30 17:27:51;;;;;;;98.78;44.92;;;;;;;2.72;88.79;101960.13;5025337;28;20101;-78
2022/11/30 17:30:20;;;;;;;97.20;45.92;;;;;;;2.66;89.55;101960.19;5016678;28;20505;-79
2022/11/30 17:32:47;;;;;;;97.25;45.88;;;;;;;2.62;89.68;101971.47;5056081;28;20179;-78
2022/11/30 17:35:15;;;;;;;101.68;47.95;;;;;;;2.53;89.96;101968.91;5058797;28;20324;-78
2022/11/30 17:37:42;;;;;;;101.68;45.88;;;;;;;2.63;89.60;101969.72;5050375;28;20136;-78
2022/11/30 17:40:11;;;;;;;91.72;46.10;;;;;;;2.58;90.01;101974.09;5055608;28;20100;-79
2022/11/30 17:51:29;;;;;;;101.38;45.75;;;;;;;2.53;90.02;101974.97;5044014;28;20043;-77
2022/11/30 19:16:01;;;;;;;94.05;43.17;;;;;;;2.52;88.94;102034.75;5043171;28;20335;-80
2022/11/30 19:18:28;;;;;;;89.85;42.28;;;;;;;2.51;88.84;102020.03;5060188;28;20104;-79
2022/11/30 19:20:59;;;;;;;82.80;42.33;;;;;;;2.47;88.96;102029.56;5058449;28;20125;-80
2022/11/30 19:23:27;;;;;;;98.28;45.78;;;;;;;2.40;88.97;102033.06;5042459;28;20156;-79
2022/11/30 19:26:04;;;;;;;91.10;44.65;;;;;;;2.33;90.03;102033.94;5065596;28;20064;-79
2022/11/30 19:28:39;;;;;;;99.60;44.22;;;;;;;2.24;90.18;102034.81;5043126;28;20470;-79
2022/11/30 19:31:16;;;;;;;95.05;44.72;;;;;;;2.13;90.78;102025.31;5027915;28;20092;-79
2022/11/30 19:33:44;;;;;;;;;;;;;;;2.19;90.83;102027.91;5026915;28;20560;-80
2022/11/30 19:36:18;;;;;;;93.13;46.53;;;;;;;2.23;90.73;102030.50;5056962;28;20003;-80
2022/11/30 19:38:47;;;;;;;96.88;46.13;;;;;;;2.25;90.31;102027.88;5024159;28;20144;-78
2022/11/30 19:41:15;;;;;;;94.07;46.60;;;;;;;2.13;90.71;102031.38;5027440;28;20112;-80
2022/11/30 19:43:45;;;;;;;99.90;47.22;;;;;;;2.15;91.08;102040.03;5041243;28;20211;-79
2022/11/30 19:46:22;;;;;;;101.13;47.65;;;;;;;2.08;91.18;102032.25;5007823;28;20592;-80
2022/11/30 19:48:59;;;;;;;96.78;45.50;;;;;;;2.18;91.28;102045.22;5044892;28;20104;-78
2022/11/30 19:51:28;;;;;;;98.63;48.65;;;;;;;2.27;90.79;102046.94;5025147;28;20578;-80
2022/11/30 19:53:58;;;;;;;107.18;49.00;;;;;;;2.34;90.58;102048.66;5041596;28;20121;-79
2022/11/30 19:56:27;;;;;;;98.03;48.22;;;;;;;2.35;90.04;102047.81;5037998;28;20375;-80
2022/11/30 20:03:14;;;;;;;102.97;49.35;;;;;;;2.38;89.48;102050.38;5049002;28;20141;-79
